sensor_id;sensor_type;location;lat;lon;timestamp;P1;durP1;ratioP1;P2;durP2;ratioP2
13085;SDS011;6609;49.882;8.664;2024-03-02T00:00:48;7.07;;;4.20;;
13085;SDS011;6609;49.882;8.664;2024-03-02T00:03:15;7.57;;;4.67;;
13085;SDS011;6609;49.882;8.664;2024-03-02T00:05:42;6.93;;;4.87;;
13085;SDS011;6609;49.882;8.664;2024-03-02T00:08:11;7.60;;;4.87;;
13085;SDS011;6609;49.882;8.664;2024-03-02T00:10:40;9.27;;;5.43;;
13085;SDS011;6609;49.882;8.664;2024-03-02T00:13:09;8.10;;;4.97;;
13085;SDS011;6609;49.882;8.664;2024-03-02T00:15:40;6.20;;;4.33;;
13085;SDS011;6609;49.882;8.664;2024-03-02T00:18:09;8.93;;;5.47;;
13085;SDS011;6609;49.882;8.664;2024-03-02T00:20:37;10.07;;;5.20;;
13085;SDS011;6609;49.882;8.664;2024-03-02T00:23:05;10.23;;;5.77;;
13085;SDS011;6609;49.882;8.664;2024-03-02T00:25:36;6.47;;;5.27;;
13085;SDS011;6609;49.882;8.664;2024-03-02T00:28:05;7.43;;;5.27;;
13085;SDS011;6609;49.882;8.664;2024-03-02T00:30:44;7.70;;;4.70;;
13085;SDS011;6609;49.882;8.664;2024-03-02T00:33:19;9.20;;;5.00;;
13085;SDS011;6609;49.882;8.664;2024-03-02T00:35:47;7.03;;;4.90;;
13085;SDS011;6609;49.882;8.664;2024-03-02T00:38:14;7.37;;;4.93;;
13085;SDS011;6609;49.882;8.664;2024-03-02T00:40:41;7.57;;;4.90;;
13085;SDS011;6609;49.882;8.664;2024-03-02T00:43:18;10.07;;;5.37;;
13085;SDS011;6609;49.882;8.664;2024-03-02T00:46:04;5.90;;;4.87;;
13085;SDS011;6609;49.882;8.664;2024-03-02T00:48:30;7.97;;;4.90;;
13085;SDS011;6609;49.882;8.664;2024-03-02T00:51:00;8.53;;;5.23;;
13085;SDS011;6609;49.882;8.664;2024-03-02T00:53:28;8.67;;;5.10;;
13085;SDS011;6609;49.882;8.664;2024-03-02T00:55:57;6.17;;;4.77;;
13085;SDS011;6609;49.882;8.664;2024-03-02T00:58:26;8.63;;;5.37;;
13085;SDS011;6609;49.882;8.664;2024-03-02T01:00:53;7.03;;;4.97;;
13085;SDS011;6609;49.882;8.664;2024-03-02T01:03:20;6.27;;;4.80;;
13085;SDS011;6609;49.882;8.664;2024-03-02T01:05:47;8.90;;;5.20;;
13085;SDS011;6609;49.882;8.664;2024-03-02T01:08:14;7.07;;;5.33;;
13085;SDS011;6609;49.882;8.664;2024-03-02T01:10:42;7.10;;;5.70;;
13085;SDS011;6609;49.882;8.664;2024-03-02T01:13:09;6.47;;;5.00;;
13085;SDS011;6609;49.882;8.664;2024-03-02T01:15:37;9.23;;;5.60;;
13085;SDS011;6609;49.882;8.664;2024-03-02T01:18:04;6.83;;;4.67;;
13085;SDS011;6609;49.882;8.664;2024-03-02T01:20:31;8.33;;;5.10;;
13085;SDS011;6609;49.882;8.664;2024-03-02T01:22:58;8.87;;;5.10;;
13085;SDS011;6609;49.882;8.664;2024-03-02T01:25:25;8.17;;;5.10;;
13085;SDS011;6609;49.882;8.664;2024-03-02T01:27:52;7.07;;;4.67;;
13085;SDS011;6609;49.882;8.664;2024-03-02T01:30:19;8.27;;;4.93;;
13085;SDS011;6609;49.882;8.664;2024-03-02T01:32:47;5.87;;;4.13;;
13085;SDS011;6609;49.882;8.664;2024-03-02T01:35:14;8.57;;;5.20;;
13085;SDS011;6609;49.882;8.664;2024-03-02T01:37:42;9.60;;;4.97;;
13085;SDS011;6609;49.882;8.664;2024-03-02T01:40:09;5.90;;;4.63;;
13085;SDS011;6609;49.882;8.664;2024-03-02T01:42:37;6.03;;;4.60;;
13085;SDS011;6609;49.882;8.664;2024-03-02T01:45:04;7.63;;;5.00;;
13085;SDS011;6609;49.882;8.664;2024-03-02T01:47:32;9.13;;;4.80;;
13085;SDS011;6609;49.882;8.664;2024-03-02T01:50:00;7.70;;;5.13;;
13085;SDS011;6609;49.882;8.664;2024-03-02T01:52:27;6.23;;;4.60;;
13085;SDS011;6609;49.882;8.664;2024-03-02T01:54:54;8.20;;;4.93;;
13085;SDS011;6609;49.882;8.664;2024-03-02T01:57:22;8.47;;;5.37;;
13085;SDS011;6609;49.882;8.664;2024-03-02T01:59:49;9.73;;;4.97;;
13085;SDS011;6609;49.882;8.664;2024-03-02T02:02:16;6.47;;;4.63;;
13085;SDS011;6609;49.882;8.664;2024-03-02T02:04:43;9.80;;;4.50;;
13085;SDS011;6609;49.882;8.664;2024-03-02T02:07:11;6.07;;;4.20;;
13085;SDS011;6609;49.882;8.664;2024-03-02T02:09:39;7.63;;;4.77;;
13085;SDS011;6609;49.882;8.664;2024-03-02T02:12:07;9.00;;;4.73;;
13085;SDS011;6609;49.882;8.664;2024-03-02T02:14:34;7.70;;;4.43;;
13085;SDS011;6609;49.882;8.664;2024-03-02T02:17:00;6.00;;;4.27;;
13085;SDS011;6609;49.882;8.664;2024-03-02T02:19:27;7.17;;;4.17;;
13085;SDS011;6609;49.882;8.664;2024-03-02T02:21:55;8.07;;;5.03;;
13085;SDS011;6609;49.882;8.664;2024-03-02T02:24:22;6.47;;;3.93;;
13085;SDS011;6609;49.882;8.664;2024-03-02T02:26:49;5.17;;;3.87;;
13085;SDS011;6609;49.882;8.664;2024-03-02T02:29:16;8.40;;;4.60;;
13085;SDS011;6609;49.882;8.664;2024-03-02T02:31:43;7.17;;;4.33;;
13085;SDS011;6609;49.882;8.664;2024-03-02T02:34:10;6.47;;;4.47;;
13085;SDS011;6609;49.882;8.664;2024-03-02T02:36:37;7.70;;;5.03;;
13085;SDS011;6609;49.882;8.664;2024-03-02T02:39:06;7.10;;;4.97;;
13085;SDS011;6609;49.882;8.664;2024-03-02T02:41:37;8.20;;;4.87;;
13085;SDS011;6609;49.882;8.664;2024-03-02T02:44:04;7.43;;;4.80;;
13085;SDS011;6609;49.882;8.664;2024-03-02T02:46:31;6.23;;;4.73;;
13085;SDS011;6609;49.882;8.664;2024-03-02T02:48:58;9.27;;;5.00;;
13085;SDS011;6609;49.882;8.664;2024-03-02T02:51:25;6.80;;;5.13;;
13085;SDS011;6609;49.882;8.664;2024-03-02T02:53:52;7.37;;;4.77;;
13085;SDS011;6609;49.882;8.664;2024-03-02T02:56:20;9.10;;;5.40;;
13085;SDS011;6609;49.882;8.664;2024-03-02T02:58:47;9.07;;;5.63;;
13085;SDS011;6609;49.882;8.664;2024-03-02T03:01:14;7.60;;;5.67;;
13085;SDS011;6609;49.882;8.664;2024-03-02T03:03:43;11.13;;;6.40;;
13085;SDS011;6609;49.882;8.664;2024-03-02T03:06:10;8.50;;;5.67;;
13085;SDS011;6609;49.882;8.664;2024-03-02T03:08:38;7.77;;;5.47;;
13085;SDS011;6609;49.882;8.664;2024-03-02T03:11:05;8.03;;;5.77;;
13085;SDS011;6609;49.882;8.664;2024-03-02T03:13:33;10.47;;;6.57;;
13085;SDS011;6609;49.882;8.664;2024-03-02T03:16:00;9.13;;;5.90;;
13085;SDS011;6609;49.882;8.664;2024-03-02T03:18:27;9.43;;;6.00;;
13085;SDS011;6609;49.882;8.664;2024-03-02T03:20:53;10.93;;;6.07;;
13085;SDS011;6609;49.882;8.664;2024-03-02T03:23:20;8.97;;;6.10;;
13085;SDS011;6609;49.882;8.664;2024-03-02T03:25:47;9.87;;;5.90;;
13085;SDS011;6609;49.882;8.664;2024-03-02T03:28:14;10.47;;;6.60;;
13085;SDS011;6609;49.882;8.664;2024-03-02T03:30:42;10.67;;;6.43;;
13085;SDS011;6609;49.882;8.664;2024-03-02T03:33:09;11.20;;;6.23;;
13085;SDS011;6609;49.882;8.664;2024-03-02T03:35:36;10.77;;;6.40;;
13085;SDS011;6609;49.882;8.664;2024-03-02T03:38:03;11.70;;;6.83;;
13085;SDS011;6609;49.882;8.664;2024-03-02T03:40:30;11.13;;;7.10;;
13085;SDS011;6609;49.882;8.664;2024-03-02T03:42:57;10.30;;;6.37;;
13085;SDS011;6609;49.882;8.664;2024-03-02T03:45:25;11.57;;;7.07;;
13085;SDS011;6609;49.882;8.664;2024-03-02T03:47:53;11.33;;;6.50;;
13085;SDS011;6609;49.882;8.664;2024-03-02T03:50:20;10.30;;;6.67;;
13085;SDS011;6609;49.882;8.664;2024-03-02T03:52:47;12.50;;;6.77;;
13085;SDS011;6609;49.882;8.664;2024-03-02T03:55:14;11.30;;;6.70;;
13085;SDS011;6609;49.882;8.664;2024-03-02T03:57:41;12.50;;;7.47;;
13085;SDS011;6609;49.882;8.664;2024-03-02T04:00:08;10.73;;;6.77;;
13085;SDS011;6609;49.882;8.664;2024-03-02T04:02:37;11.17;;;6.97;;
13085;SDS011;6609;49.882;8.664;2024-03-02T04:05:05;13.73;;;7.47;;
13085;SDS011;6609;49.882;8.664;2024-03-02T04:07:34;9.57;;;6.77;;
13085;SDS011;6609;49.882;8.664;2024-03-02T04:10:08;8.43;;;6.33;;
13085;SDS011;6609;49.882;8.664;2024-03-02T04:12:35;12.37;;;6.63;;
13085;SDS011;6609;49.882;8.664;2024-03-02T04:15:03;10.10;;;6.17;;
13085;SDS011;6609;49.882;8.664;2024-03-02T04:17:31;9.93;;;5.77;;
13085;SDS011;6609;49.882;8.664;2024-03-02T04:20:00;9.23;;;6.10;;
13085;SDS011;6609;49.882;8.664;2024-03-02T04:22:30;12.03;;;6.77;;
13085;SDS011;6609;49.882;8.664;2024-03-02T04:24:59;9.77;;;6.43;;
13085;SDS011;6609;49.882;8.664;2024-03-02T04:27:26;12.73;;;7.40;;
13085;SDS011;6609;49.882;8.664;2024-03-02T04:29:53;11.13;;;6.63;;
13085;SDS011;6609;49.882;8.664;2024-03-02T04:32:20;10.33;;;7.10;;
13085;SDS011;6609;49.882;8.664;2024-03-02T04:34:46;10.10;;;6.57;;
13085;SDS011;6609;49.882;8.664;2024-03-02T04:37:14;8.97;;;6.77;;
13085;SDS011;6609;49.882;8.664;2024-03-02T04:39:42;9.50;;;6.63;;
13085;SDS011;6609;49.882;8.664;2024-03-02T04:42:09;11.93;;;6.37;;
13085;SDS011;6609;49.882;8.664;2024-03-02T04:44:36;13.40;;;6.67;;
13085;SDS011;6609;49.882;8.664;2024-03-02T04:47:03;12.70;;;6.87;;
13085;SDS011;6609;49.882;8.664;2024-03-02T04:49:30;11.27;;;7.40;;
13085;SDS011;6609;49.882;8.664;2024-03-02T04:51:57;10.23;;;6.67;;
13085;SDS011;6609;49.882;8.664;2024-03-02T04:54:24;12.97;;;7.80;;
13085;SDS011;6609;49.882;8.664;2024-03-02T04:56:52;16.10;;;7.53;;
13085;SDS011;6609;49.882;8.664;2024-03-02T04:59:19;11.80;;;6.57;;
13085;SDS011;6609;49.882;8.664;2024-03-02T05:01:46;10.63;;;6.80;;
13085;SDS011;6609;49.882;8.664;2024-03-02T05:04:13;10.67;;;6.30;;
13085;SDS011;6609;49.882;8.664;2024-03-02T05:06:40;10.90;;;7.37;;
13085;SDS011;6609;49.882;8.664;2024-03-02T05:09:07;11.53;;;7.17;;
13085;SDS011;6609;49.882;8.664;2024-03-02T05:11:34;11.30;;;6.90;;
13085;SDS011;6609;49.882;8.664;2024-03-02T05:14:20;12.20;;;6.90;;
13085;SDS011;6609;49.882;8.664;2024-03-02T05:16:47;13.97;;;7.87;;
13085;SDS011;6609;49.882;8.664;2024-03-02T05:19:14;11.93;;;7.20;;
13085;SDS011;6609;49.882;8.664;2024-03-02T05:21:41;12.80;;;8.17;;
13085;SDS011;6609;49.882;8.664;2024-03-02T05:24:08;13.10;;;7.03;;
13085;SDS011;6609;49.882;8.664;2024-03-02T05:26:35;11.60;;;6.70;;
13085;SDS011;6609;49.882;8.664;2024-03-02T05:29:02;14.60;;;7.53;;
13085;SDS011;6609;49.882;8.664;2024-03-02T05:31:30;9.77;;;6.43;;
13085;SDS011;6609;49.882;8.664;2024-03-02T05:33:57;11.23;;;7.57;;
13085;SDS011;6609;49.882;8.664;2024-03-02T05:36:24;12.13;;;7.83;;
13085;SDS011;6609;49.882;8.664;2024-03-02T05:38:51;10.80;;;6.83;;
13085;SDS011;6609;49.882;8.664;2024-03-02T05:41:18;13.00;;;7.53;;
13085;SDS011;6609;49.882;8.664;2024-03-02T05:43:45;10.73;;;7.30;;
13085;SDS011;6609;49.882;8.664;2024-03-02T05:46:12;13.90;;;8.03;;
13085;SDS011;6609;49.882;8.664;2024-03-02T05:48:40;14.23;;;8.27;;
13085;SDS011;6609;49.882;8.664;2024-03-02T05:51:07;10.30;;;7.30;;
13085;SDS011;6609;49.882;8.664;2024-03-02T05:53:34;12.73;;;6.80;;
13085;SDS011;6609;49.882;8.664;2024-03-02T05:56:03;11.03;;;6.83;;
13085;SDS011;6609;49.882;8.664;2024-03-02T05:58:30;12.43;;;6.90;;
13085;SDS011;6609;49.882;8.664;2024-03-02T06:01:08;11.67;;;6.40;;
13085;SDS011;6609;49.882;8.664;2024-03-02T06:03:35;11.53;;;7.13;;
13085;SDS011;6609;49.882;8.664;2024-03-02T06:06:03;11.83;;;6.23;;
13085;SDS011;6609;49.882;8.664;2024-03-02T06:08:30;11.27;;;6.83;;
13085;SDS011;6609;49.882;8.664;2024-03-02T06:10:58;11.63;;;6.73;;
13085;SDS011;6609;49.882;8.664;2024-03-02T06:13:25;8.43;;;5.63;;
13085;SDS011;6609;49.882;8.664;2024-03-02T06:15:52;8.83;;;6.43;;
13085;SDS011;6609;49.882;8.664;2024-03-02T06:18:19;11.10;;;6.50;;
13085;SDS011;6609;49.882;8.664;2024-03-02T06:20:46;11.80;;;7.33;;
13085;SDS011;6609;49.882;8.664;2024-03-02T06:23:15;10.63;;;7.13;;
13085;SDS011;6609;49.882;8.664;2024-03-02T06:25:42;9.73;;;7.37;;
13085;SDS011;6609;49.882;8.664;2024-03-02T06:28:09;12.27;;;7.43;;
13085;SDS011;6609;49.882;8.664;2024-03-02T06:30:36;12.20;;;6.77;;
13085;SDS011;6609;49.882;8.664;2024-03-02T06:33:04;9.50;;;6.10;;
13085;SDS011;6609;49.882;8.664;2024-03-02T06:35:32;11.93;;;7.43;;
13085;SDS011;6609;49.882;8.664;2024-03-02T06:38:00;11.17;;;6.43;;
13085;SDS011;6609;49.882;8.664;2024-03-02T06:40:28;12.50;;;7.17;;
13085;SDS011;6609;49.882;8.664;2024-03-02T06:42:55;11.50;;;6.27;;
13085;SDS011;6609;49.882;8.664;2024-03-02T06:45:22;10.67;;;6.83;;
13085;SDS011;6609;49.882;8.664;2024-03-02T06:47:49;12.07;;;6.23;;
13085;SDS011;6609;49.882;8.664;2024-03-02T06:50:16;10.30;;;6.53;;
13085;SDS011;6609;49.882;8.664;2024-03-02T06:52:42;10.37;;;7.03;;
13085;SDS011;6609;49.882;8.664;2024-03-02T06:55:09;11.03;;;5.83;;
13085;SDS011;6609;49.882;8.664;2024-03-02T06:57:38;10.93;;;6.90;;
13085;SDS011;6609;49.882;8.664;2024-03-02T07:00:06;8.17;;;5.77;;
13085;SDS011;6609;49.882;8.664;2024-03-02T07:02:34;10.70;;;6.73;;
13085;SDS011;6609;49.882;8.664;2024-03-02T07:05:01;10.33;;;6.33;;
13085;SDS011;6609;49.882;8.664;2024-03-02T07:07:28;10.23;;;6.47;;
13085;SDS011;6609;49.882;8.664;2024-03-02T07:09:56;10.63;;;6.13;;
13085;SDS011;6609;49.882;8.664;2024-03-02T07:12:23;12.83;;;7.10;;
13085;SDS011;6609;49.882;8.664;2024-03-02T07:14:52;11.70;;;6.10;;
13085;SDS011;6609;49.882;8.664;2024-03-02T07:17:43;9.73;;;6.77;;
13085;SDS011;6609;49.882;8.664;2024-03-02T07:20:11;9.40;;;6.67;;
13085;SDS011;6609;49.882;8.664;2024-03-02T07:22:38;10.53;;;6.70;;
13085;SDS011;6609;49.882;8.664;2024-03-02T07:25:05;11.10;;;6.27;;
13085;SDS011;6609;49.882;8.664;2024-03-02T07:27:33;12.43;;;7.63;;
13085;SDS011;6609;49.882;8.664;2024-03-02T07:30:02;12.17;;;7.30;;
13085;SDS011;6609;49.882;8.664;2024-03-02T07:32:29;11.17;;;7.20;;
13085;SDS011;6609;49.882;8.664;2024-03-02T07:34:56;12.37;;;6.73;;
13085;SDS011;6609;49.882;8.664;2024-03-02T07:37:23;9.87;;;6.63;;
13085;SDS011;6609;49.882;8.664;2024-03-02T07:39:50;11.77;;;6.77;;
13085;SDS011;6609;49.882;8.664;2024-03-02T07:42:17;11.77;;;6.43;;
13085;SDS011;6609;49.882;8.664;2024-03-02T07:44:44;10.93;;;6.73;;
13085;SDS011;6609;49.882;8.664;2024-03-02T07:47:13;9.80;;;6.03;;
13085;SDS011;6609;49.882;8.664;2024-03-02T07:49:39;8.17;;;6.27;;
13085;SDS011;6609;49.882;8.664;2024-03-02T07:52:07;7.77;;;5.90;;
13085;SDS011;6609;49.882;8.664;2024-03-02T07:54:35;10.77;;;6.97;;
13085;SDS011;6609;49.882;8.664;2024-03-02T07:57:02;11.23;;;6.67;;
13085;SDS011;6609;49.882;8.664;2024-03-02T07:59:30;8.83;;;6.37;;
13085;SDS011;6609;49.882;8.664;2024-03-02T08:01:57;14.73;;;6.80;;
13085;SDS011;6609;49.882;8.664;2024-03-02T08:04:25;13.03;;;6.13;;
13085;SDS011;6609;49.882;8.664;2024-03-02T08:06:52;8.13;;;5.73;;
13085;SDS011;6609;49.882;8.664;2024-03-02T08:09:19;10.33;;;6.03;;
13085;SDS011;6609;49.882;8.664;2024-03-02T08:11:46;11.87;;;6.80;;
13085;SDS011;6609;49.882;8.664;2024-03-02T08:14:13;12.63;;;7.23;;
13085;SDS011;6609;49.882;8.664;2024-03-02T08:16:41;11.03;;;6.67;;
13085;SDS011;6609;49.882;8.664;2024-03-02T08:19:08;10.87;;;6.97;;
13085;SDS011;6609;49.882;8.664;2024-03-02T08:21:37;10.30;;;7.10;;
13085;SDS011;6609;49.882;8.664;2024-03-02T08:24:04;15.87;;;7.40;;
13085;SDS011;6609;49.882;8.664;2024-03-02T08:26:31;13.90;;;8.00;;
13085;SDS011;6609;49.882;8.664;2024-03-02T08:28:59;11.57;;;7.57;;
13085;SDS011;6609;49.882;8.664;2024-03-02T08:31:26;11.87;;;7.70;;
13085;SDS011;6609;49.882;8.664;2024-03-02T08:33:53;12.30;;;8.03;;
13085;SDS011;6609;49.882;8.664;2024-03-02T08:36:20;10.87;;;7.00;;
13085;SDS011;6609;49.882;8.664;2024-03-02T08:38:49;10.00;;;6.73;;
13085;SDS011;6609;49.882;8.664;2024-03-02T08:41:16;10.40;;;7.17;;
13085;SDS011;6609;49.882;8.664;2024-03-02T08:43:43;11.00;;;7.07;;
13085;SDS011;6609;49.882;8.664;2024-03-02T08:46:10;13.60;;;7.50;;
13085;SDS011;6609;49.882;8.664;2024-03-02T08:48:37;11.80;;;7.20;;
13085;SDS011;6609;49.882;8.664;2024-03-02T08:51:04;12.70;;;7.63;;
13085;SDS011;6609;49.882;8.664;2024-03-02T08:53:33;15.03;;;8.50;;
13085;SDS011;6609;49.882;8.664;2024-03-02T08:56:01;11.37;;;7.83;;
13085;SDS011;6609;49.882;8.664;2024-03-02T08:58:30;11.03;;;6.60;;
13085;SDS011;6609;49.882;8.664;2024-03-02T09:00:57;14.97;;;7.47;;
13085;SDS011;6609;49.882;8.664;2024-03-02T09:03:24;11.60;;;7.63;;
13085;SDS011;6609;49.882;8.664;2024-03-02T09:05:51;11.83;;;8.00;;
13085;SDS011;6609;49.882;8.664;2024-03-02T09:08:18;11.40;;;8.27;;
13085;SDS011;6609;49.882;8.664;2024-03-02T09:10:45;13.10;;;8.30;;
13085;SDS011;6609;49.882;8.664;2024-03-02T09:13:13;13.47;;;7.90;;
13085;SDS011;6609;49.882;8.664;2024-03-02T09:15:40;13.00;;;8.27;;
13085;SDS011;6609;49.882;8.664;2024-03-02T09:18:07;16.73;;;8.83;;
13085;SDS011;6609;49.882;8.664;2024-03-02T09:20:34;13.37;;;8.17;;
13085;SDS011;6609;49.882;8.664;2024-03-02T09:23:01;12.90;;;7.60;;
13085;SDS011;6609;49.882;8.664;2024-03-02T09:25:28;13.13;;;7.53;;
13085;SDS011;6609;49.882;8.664;2024-03-02T09:27:55;10.90;;;7.30;;
13085;SDS011;6609;49.882;8.664;2024-03-02T09:30:23;9.93;;;7.17;;
13085;SDS011;6609;49.882;8.664;2024-03-02T09:32:50;13.87;;;7.47;;
13085;SDS011;6609;49.882;8.664;2024-03-02T09:35:17;12.13;;;7.90;;
13085;SDS011;6609;49.882;8.664;2024-03-02T09:37:44;11.03;;;6.80;;
13085;SDS011;6609;49.882;8.664;2024-03-02T09:40:12;10.23;;;7.47;;
13085;SDS011;6609;49.882;8.664;2024-03-02T09:42:41;11.40;;;7.67;;
13085;SDS011;6609;49.882;8.664;2024-03-02T09:45:09;10.83;;;7.80;;
13085;SDS011;6609;49.882;8.664;2024-03-02T09:47:37;11.77;;;7.57;;
13085;SDS011;6609;49.882;8.664;2024-03-02T09:50:05;10.17;;;6.60;;
13085;SDS011;6609;49.882;8.664;2024-03-02T09:52:32;10.37;;;7.17;;
13085;SDS011;6609;49.882;8.664;2024-03-02T09:54:59;8.00;;;6.43;;
13085;SDS011;6609;49.882;8.664;2024-03-02T09:57:26;10.47;;;7.37;;
13085;SDS011;6609;49.882;8.664;2024-03-02T09:59:54;10.30;;;6.97;;
13085;SDS011;6609;49.882;8.664;2024-03-02T10:02:21;10.87;;;6.70;;
13085;SDS011;6609;49.882;8.664;2024-03-02T10:04:50;9.60;;;6.00;;
13085;SDS011;6609;49.882;8.664;2024-03-02T10:07:19;8.00;;;6.07;;
13085;SDS011;6609;49.882;8.664;2024-03-02T10:09:46;9.40;;;6.37;;
13085;SDS011;6609;49.882;8.664;2024-03-02T10:12:14;10.97;;;6.60;;
13085;SDS011;6609;49.882;8.664;2024-03-02T10:14:42;9.50;;;5.93;;
13085;SDS011;6609;49.882;8.664;2024-03-02T10:17:10;8.00;;;5.80;;
13085;SDS011;6609;49.882;8.664;2024-03-02T10:19:37;8.03;;;5.63;;
13085;SDS011;6609;49.882;8.664;2024-03-02T10:22:06;7.30;;;5.87;;
13085;SDS011;6609;49.882;8.664;2024-03-02T10:24:34;8.60;;;6.20;;
13085;SDS011;6609;49.882;8.664;2024-03-02T10:27:06;8.83;;;6.37;;
13085;SDS011;6609;49.882;8.664;2024-03-02T10:29:35;10.03;;;6.50;;
13085;SDS011;6609;49.882;8.664;2024-03-02T10:32:03;10.07;;;7.70;;
13085;SDS011;6609;49.882;8.664;2024-03-02T10:34:31;8.80;;;6.03;;
13085;SDS011;6609;49.882;8.664;2024-03-02T10:36:59;10.90;;;6.30;;
13085;SDS011;6609;49.882;8.664;2024-03-02T10:39:27;6.63;;;4.90;;
13085;SDS011;6609;49.882;8.664;2024-03-02T10:41:55;6.37;;;4.10;;
13085;SDS011;6609;49.882;8.664;2024-03-02T10:44:22;7.37;;;5.30;;
13085;SDS011;6609;49.882;8.664;2024-03-02T10:46:50;7.07;;;4.40;;
13085;SDS011;6609;49.882;8.664;2024-03-02T10:49:17;7.00;;;4.20;;
13085;SDS011;6609;49.882;8.664;2024-03-02T10:51:46;6.70;;;4.07;;
13085;SDS011;6609;49.882;8.664;2024-03-02T10:54:13;6.50;;;4.23;;
13085;SDS011;6609;49.882;8.664;2024-03-02T10:56:43;6.13;;;4.67;;
13085;SDS011;6609;49.882;8.664;2024-03-02T10:59:14;6.17;;;3.70;;
13085;SDS011;6609;49.882;8.664;2024-03-02T11:01:47;6.30;;;4.27;;
13085;SDS011;6609;49.882;8.664;2024-03-02T11:04:15;5.67;;;4.10;;
13085;SDS011;6609;49.882;8.664;2024-03-02T11:06:44;4.27;;;3.87;;
13085;SDS011;6609;49.882;8.664;2024-03-02T11:09:15;6.10;;;3.60;;
13085;SDS011;6609;49.882;8.664;2024-03-02T11:11:46;4.83;;;3.43;;
13085;SDS011;6609;49.882;8.664;2024-03-02T11:14:19;7.13;;;3.40;;
13085;SDS011;6609;49.882;8.664;2024-03-02T11:16:48;4.60;;;3.33;;
13085;SDS011;6609;49.882;8.664;2024-03-02T11:19:15;4.27;;;2.73;;
13085;SDS011;6609;49.882;8.664;2024-03-02T11:21:43;4.20;;;2.93;;
13085;SDS011;6609;49.882;8.664;2024-03-02T11:24:28;6.93;;;3.70;;
13085;SDS011;6609;49.882;8.664;2024-03-02T11:27:01;6.03;;;3.43;;
13085;SDS011;6609;49.882;8.664;2024-03-02T11:29:42;3.40;;;2.67;;
13085;SDS011;6609;49.882;8.664;2024-03-02T11:32:13;4.03;;;3.00;;
13085;SDS011;6609;49.882;8.664;2024-03-02T11:34:41;5.60;;;3.63;;
13085;SDS011;6609;49.882;8.664;2024-03-02T11:37:11;3.23;;;2.67;;
13085;SDS011;6609;49.882;8.664;2024-03-02T11:39:38;6.07;;;3.13;;
13085;SDS011;6609;49.882;8.664;2024-03-02T11:42:07;3.80;;;2.70;;
13085;SDS011;6609;49.882;8.664;2024-03-02T11:44:35;5.93;;;3.10;;
13085;SDS011;6609;49.882;8.664;2024-03-02T11:47:02;4.07;;;2.70;;
13085;SDS011;6609;49.882;8.664;2024-03-02T11:49:37;7.17;;;3.57;;
13085;SDS011;6609;49.882;8.664;2024-03-02T11:52:05;5.63;;;3.50;;
13085;SDS011;6609;49.882;8.664;2024-03-02T11:54:33;5.63;;;2.70;;
13085;SDS011;6609;49.882;8.664;2024-03-02T11:57:01;7.53;;;4.00;;
13085;SDS011;6609;49.882;8.664;2024-03-02T11:59:31;8.43;;;3.70;;
13085;SDS011;6609;49.882;8.664;2024-03-02T12:01:58;6.63;;;3.57;;
13085;SDS011;6609;49.882;8.664;2024-03-02T12:04:25;5.30;;;3.53;;
13085;SDS011;6609;49.882;8.664;2024-03-02T12:06:55;5.10;;;3.20;;
13085;SDS011;6609;49.882;8.664;2024-03-02T12:09:24;5.37;;;3.57;;
13085;SDS011;6609;49.882;8.664;2024-03-02T12:12:01;5.63;;;3.60;;
13085;SDS011;6609;49.882;8.664;2024-03-02T12:14:28;4.87;;;3.47;;
13085;SDS011;6609;49.882;8.664;2024-03-02T12:16:57;5.30;;;3.57;;
13085;SDS011;6609;49.882;8.664;2024-03-02T12:19:24;5.63;;;3.20;;
13085;SDS011;6609;49.882;8.664;2024-03-02T12:21:51;4.67;;;3.07;;
13085;SDS011;6609;49.882;8.664;2024-03-02T12:24:20;6.57;;;3.90;;
13085;SDS011;6609;49.882;8.664;2024-03-02T12:26:47;6.53;;;4.07;;
13085;SDS011;6609;49.882;8.664;2024-03-02T12:29:14;5.93;;;3.70;;
13085;SDS011;6609;49.882;8.664;2024-03-02T12:31:42;4.90;;;3.37;;
13085;SDS011;6609;49.882;8.664;2024-03-02T12:34:11;6.57;;;3.77;;
13085;SDS011;6609;49.882;8.664;2024-03-02T12:36:39;5.80;;;3.53;;
13085;SDS011;6609;49.882;8.664;2024-03-02T12:39:06;7.13;;;3.80;;
13085;SDS011;6609;49.882;8.664;2024-03-02T12:41:35;6.70;;;3.63;;
13085;SDS011;6609;49.882;8.664;2024-03-02T12:44:03;8.00;;;3.73;;
13085;SDS011;6609;49.882;8.664;2024-03-02T12:46:30;5.90;;;3.17;;
13085;SDS011;6609;49.882;8.664;2024-03-02T12:48:57;5.00;;;3.43;;
13085;SDS011;6609;49.882;8.664;2024-03-02T12:51:27;5.60;;;3.00;;
13085;SDS011;6609;49.882;8.664;2024-03-02T12:53:54;5.60;;;3.03;;
13085;SDS011;6609;49.882;8.664;2024-03-02T12:56:21;4.07;;;2.57;;
13085;SDS011;6609;49.882;8.664;2024-03-02T12:58:52;5.87;;;2.93;;
13085;SDS011;6609;49.882;8.664;2024-03-02T13:01:19;5.57;;;3.60;;
13085;SDS011;6609;49.882;8.664;2024-03-02T13:03:49;3.63;;;2.67;;
13085;SDS011;6609;49.882;8.664;2024-03-02T13:06:16;5.00;;;2.77;;
13085;SDS011;6609;49.882;8.664;2024-03-02T13:08:45;4.17;;;2.67;;
13085;SDS011;6609;49.882;8.664;2024-03-02T13:11:13;3.43;;;2.40;;
13085;SDS011;6609;49.882;8.664;2024-03-02T13:13:40;3.33;;;2.30;;
13085;SDS011;6609;49.882;8.664;2024-03-02T13:16:10;3.63;;;2.40;;
13085;SDS011;6609;49.882;8.664;2024-03-02T13:18:38;3.57;;;2.47;;
13085;SDS011;6609;49.882;8.664;2024-03-02T13:21:05;4.47;;;3.07;;
13085;SDS011;6609;49.882;8.664;2024-03-02T13:23:32;5.47;;;3.10;;
13085;SDS011;6609;49.882;8.664;2024-03-02T13:26:01;3.10;;;1.93;;
13085;SDS011;6609;49.882;8.664;2024-03-02T13:28:28;4.93;;;2.57;;
13085;SDS011;6609;49.882;8.664;2024-03-02T13:30:55;3.70;;;2.03;;
13085;SDS011;6609;49.882;8.664;2024-03-02T13:33:23;2.57;;;2.00;;
13085;SDS011;6609;49.882;8.664;2024-03-02T13:35:50;2.20;;;1.90;;
13085;SDS011;6609;49.882;8.664;2024-03-02T13:38:18;3.20;;;2.33;;
13085;SDS011;6609;49.882;8.664;2024-03-02T13:40:46;4.40;;;2.10;;
13085;SDS011;6609;49.882;8.664;2024-03-02T13:43:14;5.17;;;2.40;;
13085;SDS011;6609;49.882;8.664;2024-03-02T13:45:41;3.30;;;2.40;;
13085;SDS011;6609;49.882;8.664;2024-03-02T13:48:08;4.40;;;2.40;;
13085;SDS011;6609;49.882;8.664;2024-03-02T13:50:35;3.43;;;2.30;;
13085;SDS011;6609;49.882;8.664;2024-03-02T13:53:02;3.20;;;2.23;;
13085;SDS011;6609;49.882;8.664;2024-03-02T13:55:31;3.67;;;2.40;;
13085;SDS011;6609;49.882;8.664;2024-03-02T13:57:58;5.60;;;2.70;;
13085;SDS011;6609;49.882;8.664;2024-03-02T14:00:27;4.33;;;3.10;;
13085;SDS011;6609;49.882;8.664;2024-03-02T14:02:54;4.47;;;2.63;;
13085;SDS011;6609;49.882;8.664;2024-03-02T14:05:21;5.17;;;3.30;;
13085;SDS011;6609;49.882;8.664;2024-03-02T14:07:48;4.57;;;2.90;;
13085;SDS011;6609;49.882;8.664;2024-03-02T14:10:15;5.63;;;2.70;;
13085;SDS011;6609;49.882;8.664;2024-03-02T14:12:43;5.97;;;2.57;;
13085;SDS011;6609;49.882;8.664;2024-03-02T14:15:10;2.13;;;1.80;;
13085;SDS011;6609;49.882;8.664;2024-03-02T14:17:39;3.67;;;2.73;;
13085;SDS011;6609;49.882;8.664;2024-03-02T14:20:06;3.07;;;2.53;;
13085;SDS011;6609;49.882;8.664;2024-03-02T14:22:36;3.03;;;2.30;;
13085;SDS011;6609;49.882;8.664;2024-03-02T14:25:03;2.73;;;2.20;;
13085;SDS011;6609;49.882;8.664;2024-03-02T14:27:30;5.13;;;2.00;;
13085;SDS011;6609;49.882;8.664;2024-03-02T14:29:56;5.90;;;2.20;;
13085;SDS011;6609;49.882;8.664;2024-03-02T14:32:23;2.80;;;2.27;;
13085;SDS011;6609;49.882;8.664;2024-03-02T14:34:52;4.00;;;1.80;;
13085;SDS011;6609;49.882;8.664;2024-03-02T14:37:19;1.83;;;1.67;;
13085;SDS011;6609;49.882;8.664;2024-03-02T14:39:46;2.60;;;2.10;;
13085;SDS011;6609;49.882;8.664;2024-03-02T14:42:13;3.03;;;2.03;;
13085;SDS011;6609;49.882;8.664;2024-03-02T14:44:40;2.30;;;1.80;;
13085;SDS011;6609;49.882;8.664;2024-03-02T14:47:08;2.07;;;1.73;;
13085;SDS011;6609;49.882;8.664;2024-03-02T14:49:35;3.23;;;2.40;;
13085;SDS011;6609;49.882;8.664;2024-03-02T14:52:06;2.03;;;1.63;;
13085;SDS011;6609;49.882;8.664;2024-03-02T14:54:34;2.20;;;1.70;;
13085;SDS011;6609;49.882;8.664;2024-03-02T14:57:01;1.93;;;1.43;;
13085;SDS011;6609;49.882;8.664;2024-03-02T14:59:28;1.90;;;1.60;;